Time;durP1;ratioP1;P1;durP2;ratioP2;P2;SDS_P1;SDS_P2;PMS_P1;PMS_P2;Temp;Humidity;BMP_temperature;BMP_pressure;BME280_temperature;BME280_humidity;BME280_pressure;Samples;Min_cycle;Max_cycle;Signal;HPM_P1;HPM_P2
2021/04/24 00:00:57;;;;;;;20.02;6.90;;;5.20;97.30;;;;;;10461728;28;20481;-67
2021/04/24 00:05:59;;;;;;;19.52;6.93;;;5.30;97.60;;;;;;10463637;28;20048;-68
2021/04/24 00:11:00;;;;;;;16.50;6.90;;;5.30;97.50;;;;;;10459862;28;20058;-71
2021/04/24 00:16:02;;;;;;;27.77;7.45;;;5.20;97.60;;;;;;10456907;28;20052;-67
2021/04/24 00:21:05;;;;;;;20.02;7.25;;;5.20;97.70;;;;;;10460762;28;20049;-67
2021/04/24 00:26:06;;;;;;;21.27;7.90;;;5.20;97.90;;;;;;10461565;28;20132;-66
2021/04/24 00:31:08;;;;;;;13.23;6.57;;;5.20;98.10;;;;;;10457092;28;20059;-68
2021/04/24 00:36:10;;;;;;;20.98;7.00;;;5.20;98.20;;;;;;10462732;28;20046;-69
2021/04/24 00:41:11;;;;;;;23.20;6.80;;;4.80;99.60;;;;;;10466608;28;20091;-69
2021/04/24 00:46:15;;;;;;;19.67;6.25;;;5.00;98.00;;;;;;10469398;28;20083;-68
2021/04/24 00:51:17;;;;;;;31.25;7.25;;;4.90;98.20;;;;;;10468712;28;20481;-68
2021/04/24 00:56:19;;;;;;;17.90;6.97;;;5.00;98.60;;;;;;10467901;28;20052;-68
2021/04/24 01:01:20;;;;;;;18.73;6.53;;;5.10;99.00;;;;;;10468643;28;20041;-68
2021/04/24 01:06:22;;;;;;;33.60;7.25;;;5.20;99.90;;;;;;10468273;28;20917;-67
2021/04/24 01:11:24;;;;;;;19.80;7.10;;;4.90;98.90;;;;;;10468256;28;20188;-69
2021/04/24 01:16:25;;;;;;;25.50;7.80;;;4.90;99.00;;;;;;10466533;28;20064;-68
2021/04/24 01:21:28;;;;;;;13.98;6.28;;;4.90;99.40;;;;;;10469301;28;20139;-68
2021/04/24 01:26:31;;;;;;;19.30;7.22;;;4.80;99.90;;;;;;10468375;28;20753;-68
2021/04/24 01:31:32;;;;;;;14.43;7.53;;;4.80;99.40;;;;;;10465522;28;20097;-68
2021/04/24 01:36:35;;;;;;;21.40;6.88;;;4.80;99.90;;;;;;10465126;28;20055;-68
2021/04/24 01:41:37;;;;;;;19.75;7.05;;;4.80;99.90;;;;;;10467507;28;20044;-67
2021/04/24 01:46:38;;;;;;;17.67;7.22;;;4.70;99.90;;;;;;10468712;28;20052;-68
2021/04/24 01:51:40;;;;;;;22.95;6.93;;;4.80;99.90;;;;;;10469463;28;20168;-69
2021/04/24 01:56:44;;;;;;;14.48;6.65;;;4.70;99.90;;;;;;10467199;28;20392;-69
2021/04/24 02:01:49;;;;;;;15.35;6.60;;;4.70;99.90;;;;;;10469331;28;20056;-68
2021/04/24 02:06:50;;;;;;;22.95;8.25;;;4.60;99.90;;;;;;10466845;28;20058;-69
2021/04/24 02:12:01;;;;;;;18.63;7.97;;;4.70;99.90;;;;;;10468371;28;20041;-69
2021/04/24 02:17:03;;;;;;;17.13;7.13;;;4.60;99.90;;;;;;10468417;28;20045;-68
2021/04/24 02:22:06;;;;;;;18.95;7.05;;;4.50;99.90;;;;;;10467212;28;20170;-69
2021/04/24 02:27:09;;;;;;;16.97;7.17;;;4.50;99.90;;;;;;10467319;28;20071;-69
2021/04/24 02:32:13;;;;;;;25.63;7.72;;;4.50;99.90;;;;;;10466328;28;20051;-69
2021/04/24 02:37:15;;;;;;;;;;;4.50;99.90;;;;;;10466450;28;20067;-69
2021/04/24 02:42:20;;;;;;;23.90;8.15;;;4.40;99.90;;;;;;10466132;28;19950;-68
2021/04/24 02:47:23;;;;;;;28.63;8.38;;;4.40;99.90;;;;;;10463837;28;20072;-68
2021/04/24 02:52:24;;;;;;;28.27;8.50;;;4.40;99.90;;;;;;10464027;28;20506;-68
2021/04/24 02:57:27;;;;;;;19.27;8.25;;;4.30;99.90;;;;;;10463459;28;20051;-69
2021/04/24 03:02:28;;;;;;;22.70;8.32;;;4.20;99.90;;;;;;10461480;28;20048;-68
2021/04/24 03:07:30;;;;;;;25.95;8.90;;;4.20;99.90;;;;;;10461348;28;20050;-69
2021/04/24 03:12:32;;;;;;;27.08;8.13;;;4.10;99.90;;;;;;10457783;28;20052;-69
2021/04/24 03:17:34;;;;;;;28.05;8.77;;;4.10;99.90;;;;;;10458621;28;20049;-68
2021/04/24 03:22:35;;;;;;;36.15;10.35;;;4.00;99.90;;;;;;10463636;28;20053;-69
2021/04/24 03:27:38;;;;;;;24.23;9.15;;;4.00;99.90;;;;;;10465567;28;20040;-68
2021/04/24 03:32:40;;;;;;;25.17;9.38;;;3.90;99.90;;;;;;10464349;28;20448;-69
2021/04/24 03:37:41;;;;;;;21.95;9.00;;;4.00;99.90;;;;;;10464471;28;20053;-69
2021/04/24 03:42:43;;;;;;;27.80;10.20;;;3.90;99.90;;;;;;10464438;28;20056;-68
2021/04/24 03:47:46;;;;;;;37.75;10.07;;;3.90;99.90;;;;;;10462640;28;20795;-68
2021/04/24 03:52:48;;;;;;;33.78;9.65;;;3.80;99.90;;;;;;10462668;28;20052;-69
2021/04/24 03:57:51;;;;;;;24.30;8.60;;;3.80;99.90;;;;;;10462741;28;20131;-68
2021/04/24 04:02:56;;;;;;;28.08;9.40;;;3.70;99.90;;;;;;10461450;28;20080;-69
2021/04/24 04:07:58;;;;;;;28.90;10.50;;;3.70;99.90;;;;;;10461099;28;20579;-69
2021/04/24 04:13:01;;;;;;;27.08;9.32;;;3.70;99.90;;;;;;10458317;28;20052;-68
2021/04/24 04:18:05;;;;;;;32.53;9.77;;;3.70;99.90;;;;;;10459977;28;20067;-68
2021/04/24 04:23:06;;;;;;;28.77;10.00;;;3.70;99.90;;;;;;10464893;28;20419;-69
2021/04/24 04:28:08;;;;;;;33.65;10.82;;;3.70;99.90;;;;;;10462514;28;20178;-69
2021/04/24 04:33:11;;;;;;;44.25;11.13;;;3.70;99.90;;;;;;10462858;28;20159;-68
2021/04/24 04:38:12;;;;;;;23.20;8.95;;;3.80;99.90;;;;;;10462490;28;20151;-69
2021/04/24 04:43:15;;;;;;;33.20;10.60;;;3.90;99.90;;;;;;10462797;28;20147;-69
2021/04/24 04:48:16;;;;;;;31.43;10.10;;;4.00;99.90;;;;;;10463600;28;20062;-69
2021/04/24 04:53:17;;;;;;;28.92;10.77;;;4.20;99.90;;;;;;10461347;28;20055;-68
2021/04/24 04:58:20;;;;;;;27.48;10.75;;;4.40;99.90;;;;;;10462402;28;20052;-68
2021/04/24 05:03:22;;;;;;;37.53;10.93;;;4.60;99.90;;;;;;10461040;28;20052;-70
2021/04/24 05:08:23;;;;;;;22.42;10.32;;;4.90;99.90;;;;;;10460926;28;20044;-71
2021/04/24 05:13:25;;;;;;;31.00;10.50;;;5.30;99.90;;;;;;10460996;28;20044;-69
2021/04/24 05:18:26;;;;;;;32.45;10.80;;;5.80;99.90;;;;;;10448962;28;20052;-69
2021/04/24 05:23:28;;;;;;;31.92;9.45;;;6.00;99.90;;;;;;10463580;28;20123;-69
2021/04/24 05:28:30;;;;;;;23.30;10.85;;;6.50;99.90;;;;;;10464670;28;21494;-69
2021/04/24 05:33:31;;;;;;;30.17;10.93;;;7.10;98.90;;;;;;10460678;28;20132;-69
2021/04/24 05:38:33;;;;;;;24.35;9.35;;;8.10;96.70;;;;;;10463866;28;20049;-69
2021/04/24 05:43:35;;;;;;;24.80;10.73;;;8.90;95.00;;;;;;10461212;28;20408;-69
2021/04/24 05:48:37;;;;;;;17.95;9.20;;;10.10;92.50;;;;;;10461928;28;20052;-70
2021/04/24 05:53:38;;;;;;;15.40;8.90;;;10.90;89.30;;;;;;10461748;28;20063;-67
2021/04/24 05:58:41;;;;;;;17.67;9.00;;;11.00;89.00;;;;;;10463381;28;20897;-68
2021/04/24 06:03:42;;;;;;;17.00;8.55;;;11.30;86.10;;;;;;10465542;28;20079;-66
2021/04/24 06:08:43;;;;;;;17.42;9.18;;;10.10;88.60;;;;;;10462470;28;20047;-68
2021/04/24 06:13:45;;;;;;;17.98;8.57;;;10.00;90.70;;;;;;10462275;28;20138;-67
2021/04/24 06:18:47;;;;;;;17.17;7.90;;;11.80;86.70;;;;;;10462652;28;20090;-67
2021/04/24 06:23:48;;;;;;;16.00;8.52;;;13.20;80.00;;;;;;10463691;28;20047;-67
2021/04/24 06:28:51;;;;;;;17.23;8.05;;;12.50;81.10;;;;;;10461618;28;20059;-68
2021/04/24 06:33:52;;;;;;;15.27;7.40;;;11.60;81.90;;;;;;10457831;28;20532;-68
2021/04/24 06:38:54;;;;;;;13.80;6.22;;;12.80;79.70;;;;;;10461178;28;20049;-69
2021/04/24 06:43:56;;;;;;;17.83;6.68;;;15.80;66.90;;;;;;10460693;28;20048;-68
2021/04/24 06:48:59;;;;;;;13.15;6.68;;;17.20;59.40;;;;;;10461421;28;20098;-68
2021/04/24 06:54:00;;;;;;;13.18;6.20;;;17.40;58.60;;;;;;10461064;28;20408;-67
2021/04/24 06:59:02;;;;;;;11.30;5.85;;;17.90;55.10;;;;;;10462127;28;20547;-68
2021/04/24 07:04:04;;;;;;;;;;;18.40;52.40;;;;;;10454799;28;20044;-68
2021/04/24 07:09:06;;;;;;;11.07;7.00;;;19.50;51.00;;;;;;10461762;28;19920;-68
2021/04/24 07:14:08;;;;;;;11.05;5.70;;;20.80;44.30;;;;;;10454195;28;20056;-69
2021/04/24 07:19:09;;;;;;;12.88;6.25;;;21.00;42.80;;;;;;10460138;28;20480;-69
2021/04/24 07:24:11;;;;;;;9.70;6.37;;;19.40;44.80;;;;;;10462825;28;20135;-69
2021/04/24 07:29:13;;;;;;;6.68;4.80;;;18.50;45.60;;;;;;10458860;28;20477;-69
2021/04/24 07:34:15;;;;;;;10.32;5.85;;;18.30;44.50;;;;;;10459929;28;20127;-67
2021/04/24 07:39:16;;;;;;;12.07;5.17;;;19.00;43.70;;;;;;10460855;28;20056;-67
2021/04/24 07:44:18;;;;;;;11.93;5.40;;;20.10;42.70;;;;;;10460348;28;20855;-67
2021/04/24 07:49:19;;;;;;;;;;;20.40;39.50;;;;;;10459958;28;20650;-67
2021/04/24 07:54:21;;;;;;;10.57;5.20;;;21.20;39.20;;;;;;10456883;28;19922;-67
2021/04/24 07:59:23;;;;;;;7.45;4.60;;;22.60;35.20;;;;;;10457471;28;20052;-66
2021/04/24 08:04:24;;;;;;;7.13;4.78;;;21.40;38.30;;;;;;10457818;28;20117;-66
2021/04/24 08:09:26;;;;;;;7.00;4.80;;;21.30;35.90;;;;;;10459786;28;20044;-66
2021/04/24 08:14:28;;;;;;;10.55;6.32;;;22.20;33.20;;;;;;10459062;28;20595;-67
2021/04/24 08:19:30;;;;;;;8.18;4.63;;;23.80;32.10;;;;;;10459981;28;20203;-67
2021/04/24 08:24:31;;;;;;;;;;;24.70;30.00;;;;;;10460716;28;20498;-67
2021/04/24 08:29:33;;;;;;;6.72;4.10;;;25.10;30.70;;;;;;10460262;28;20019;-67
2021/04/24 08:34:34;;;;;;;9.25;3.47;;;25.20;30.40;;;;;;10458418;28;20140;-66
2021/04/24 08:39:37;;;;;;;;;;;23.10;29.70;;;;;;10459813;28;20056;-66
2021/04/24 08:44:39;;;;;;;3.97;3.17;;;24.80;31.30;;;;;;10457025;28;20386;-67
2021/04/24 08:49:41;;;;;;;6.65;3.38;;;22.60;30.00;;;;;;10458511;28;20087;-67
2021/04/24 08:54:42;;;;;;;8.13;3.33;;;22.70;31.40;;;;;;10458920;28;21371;-67
2021/04/24 08:59:44;;;;;;;;;;;23.60;30.30;;;;;;10467241;28;20492;-68
2021/04/24 09:04:45;;;;;;;6.85;3.38;;;22.20;28.80;;;;;;10468128;28;20002;-69
2021/04/24 09:09:57;;;;;;;7.43;3.60;;;24.10;28.80;;;;;;10466323;28;20044;-68
2021/04/24 09:15:10;;;;;;;7.07;3.25;;;24.10;28.60;;;;;;10466264;28;20412;-67
2021/04/24 09:20:13;;;;;;;8.13;2.97;;;24.40;28.90;;;;;;10465952;28;20079;-68
2021/04/24 09:25:14;;;;;;;8.88;3.58;;;24.40;28.50;;;;;;10466587;28;20294;-66
2021/04/24 09:30:19;;;;;;;7.65;3.95;;;24.30;29.00;;;;;;10466564;28;20152;-66
2021/04/24 09:35:21;;;;;;;7.35;4.03;;;24.30;29.30;;;;;;10464697;28;20369;-66
2021/04/24 09:40:22;;;;;;;9.18;4.70;;;24.10;29.40;;;;;;10464825;28;20052;-67
2021/04/24 09:45:33;;;;;;;6.82;4.65;;;23.50;30.00;;;;;;10465798;28;20080;-67
2021/04/24 09:50:36;;;;;;;7.80;5.57;;;22.90;30.40;;;;;;10461396;28;20048;-67
2021/04/24 09:55:38;;;;;;;11.45;5.38;;;22.60;30.70;;;;;;10465852;28;20487;-67
2021/04/24 10:00:41;;;;;;;8.75;5.40;;;22.10;32.40;;;;;;10465618;28;20087;-66
2021/04/24 10:05:42;;;;;;;8.60;4.80;;;22.10;32.70;;;;;;10463585;28;20059;-66
2021/04/24 10:10:44;;;;;;;14.25;7.75;;;23.60;30.50;;;;;;10465540;28;20060;-67
2021/04/24 10:15:47;;;;;;;12.68;7.88;;;24.10;31.60;;;;;;10464487;28;20558;-66
2021/04/24 10:20:49;;;;;;;11.07;7.00;;;22.90;33.20;;;;;;10464487;28;20401;-66
2021/04/24 10:25:51;;;;;;;8.80;6.32;;;22.80;33.50;;;;;;10466630;28;20136;-67
2021/04/24 10:30:54;;;;;;;13.88;6.05;;;21.30;35.60;;;;;;10464653;28;20571;-67
2021/04/24 10:35:57;;;;;;;8.98;5.40;;;20.70;36.70;;;;;;10459937;28;20519;-67
2021/04/24 10:40:58;;;;;;;6.60;4.45;;;20.50;37.10;;;;;;10464652;28;20087;-67
2021/04/24 10:46:24;;;;;;;6.43;4.45;;;20.60;37.50;;;;;;10457656;28;20082;-67
2021/04/24 10:51:59;;;;;;;5.57;4.05;;;20.60;39.30;;;;;;10456470;28;20851;-67
2021/04/24 10:57:02;;;;;;;7.75;4.00;;;20.10;39.30;;;;;;10462651;28;20119;-65
2021/04/24 11:02:10;;;;;;;8.82;4.40;;;19.90;38.70;;;;;;10465431;28;20052;-68
2021/04/24 11:07:22;;;;;;;10.93;4.50;;;19.40;40.50;;;;;;10470769;28;20090;-67
2021/04/24 11:12:24;;;;;;;8.85;4.45;;;19.70;41.00;;;;;;10463297;28;20575;-67
2021/04/24 11:17:27;;;;;;;;;;;19.90;39.40;;;;;;10463897;28;20120;-67
2021/04/24 11:22:31;;;;;;;;;;;19.60;41.00;;;;;;10461315;28;20005;-68
2021/04/24 11:28:04;;;;;;;11.88;4.10;;;19.60;40.10;;;;;;10461549;28;19916;-67
2021/04/24 11:33:31;;;;;;;9.27;5.13;;;19.80;41.70;;;;;;10464998;28;20087;-68
2021/04/24 11:39:14;;;;;;;6.72;4.78;;;19.60;40.80;;;;;;10460414;28;20118;-70
2021/04/24 11:44:50;;;;;;;10.93;5.13;;;19.80;40.20;;;;;;10436010;28;20940;-70
2021/04/24 11:49:52;;;;;;;8.45;5.00;;;20.10;39.90;;;;;;10463098;28;20062;-69
2021/04/24 11:54:54;;;;;;;11.27;5.97;;;20.10;39.90;;;;;;10460116;28;20083;-67
2021/04/24 11:59:56;;;;;;;8.70;5.63;;;19.80;39.70;;;;;;10459217;28;20473;-67
2021/04/24 12:05:01;;;;;;;9.45;6.05;;;19.80;40.50;;;;;;10458941;28;20839;-67
2021/04/24 12:10:04;;;;;;;15.55;5.25;;;19.90;40.70;;;;;;10459913;28;20044;-70
2021/04/24 12:15:09;;;;;;;13.35;4.95;;;19.80;40.00;;;;;;10459316;28;20592;-70
2021/04/24 12:20:19;;;;;;;10.10;4.50;;;20.50;38.30;;;;;;10463621;28;20048;-68
2021/04/24 12:25:22;;;;;;;5.03;4.00;;;20.80;38.80;;;;;;10461559;28;20071;-67
2021/04/24 12:30:25;;;;;;;5.40;3.40;;;21.10;36.30;;;;;;10466154;28;20120;-68
2021/04/24 12:35:29;;;;;;;7.80;3.30;;;20.50;37.10;;;;;;10469400;28;21277;-70
2021/04/24 12:40:32;;;;;;;10.65;3.42;;;19.90;38.90;;;;;;10470200;28;20053;-69
2021/04/24 12:45:34;;;;;;;10.82;2.78;;;19.90;38.90;;;;;;10470007;28;20062;-76
2021/04/24 12:50:39;;;;;;;8.93;3.10;;;19.90;38.50;;;;;;10472472;28;20048;-69
2021/04/24 12:55:42;;;;;;;14.55;3.33;;;20.20;37.70;;;;;;10465774;28;20393;-68
2021/04/24 13:00:47;;;;;;;6.88;2.70;;;20.50;37.60;;;;;;10467948;28;20176;-68
2021/04/24 13:05:50;;;;;;;17.73;2.60;;;20.50;43.30;;;;;;10468175;28;20033;-69
2021/04/24 13:11:06;;;;;;;10.15;2.72;;;20.80;40.50;;;;;;10470639;28;20080;-67
2021/04/24 13:16:10;;;;;;;6.20;2.85;;;20.50;40.30;;;;;;10471771;28;20036;-78
2021/04/24 13:21:23;;;;;;;8.27;3.28;;;20.80;36.60;;;;;;10477665;28;20040;-70
2021/04/24 13:26:25;;;;;;;7.45;2.92;;;21.70;36.80;;;;;;10476938;28;20060;-66
2021/04/24 13:31:26;;;;;;;5.38;2.47;;;19.90;40.90;;;;;;10477609;28;20140;-72
2021/04/24 13:36:28;;;;;;;8.70;3.07;;;20.10;37.60;;;;;;10476014;28;20066;-69
2021/04/24 13:41:36;;;;;;;;;;;19.40;39.40;;;;;;10471443;28;20931;-68
2021/04/24 13:46:46;;;;;;;12.20;3.53;;;18.70;42.20;;;;;;10472867;28;19932;-69
2021/04/24 13:51:49;;;;;;;14.07;3.20;;;18.00;48.40;;;;;;10474469;28;20089;-69
2021/04/24 13:56:53;;;;;;;11.15;3.33;;;17.80;44.60;;;;;;10475732;28;20078;-68
2021/04/24 14:01:54;;;;;;;9.45;3.72;;;17.30;46.30;;;;;;10473764;28;20088;-71
2021/04/24 14:06:57;;;;;;;15.07;4.75;;;17.10;53.00;;;;;;10473438;28;20048;-69
2021/04/24 14:11:59;;;;;;;11.68;3.95;;;16.80;48.80;;;;;;10474815;28;20045;-70
2021/04/24 14:17:00;;;;;;;15.60;3.90;;;16.80;51.80;;;;;;10474249;28;20223;-74
2021/04/24 14:22:03;;;;;;;13.17;3.53;;;16.70;47.80;;;;;;10479005;28;20648;-70
2021/04/24 14:27:08;;;;;;;9.57;3.03;;;16.60;49.00;;;;;;10475535;28;20044;-73
2021/04/24 14:32:10;;;;;;;9.15;3.00;;;16.30;51.20;;;;;;10474893;28;20063;-79
2021/04/24 14:37:12;;;;;;;6.10;3.22;;;16.40;44.20;;;;;;10474160;28;20347;-69
2021/04/24 14:42:14;;;;;;;10.73;2.95;;;16.70;40.00;;;;;;10474897;28;20086;-72
2021/04/24 14:47:15;;;;;;;8.43;3.20;;;16.70;43.30;;;;;;10474506;28;20047;-71
2021/04/24 14:52:17;;;;;;;4.90;2.53;;;16.90;38.80;;;;;;10471422;28;20044;-70
2021/04/24 14:57:18;;;;;;;;;;;16.60;37.20;;;;;;10474134;28;20040;-70
2021/04/24 15:02:20;;;;;;;5.60;2.90;;;16.60;41.50;;;;;;10471951;28;19921;-69
2021/04/24 15:07:22;;;;;;;12.38;3.53;;;16.40;37.70;;;;;;10473360;28;20140;-70
2021/04/24 15:12:27;;;;;;;16.30;3.72;;;16.40;54.70;;;;;;10469951;28;20063;-71
2021/04/24 15:17:28;;;;;;;14.90;3.67;;;16.50;55.40;;;;;;10471236;28;20077;-69
2021/04/24 15:22:31;;;;;;;19.10;5.25;;;16.10;51.20;;;;;;10471895;28;20040;-72
2021/04/24 15:27:32;;;;;;;;;;;16.00;52.80;;;;;;10468210;28;20095;-72
2021/04/24 15:32:34;;;;;;;9.10;3.67;;;15.60;54.40;;;;;;10467880;28;19939;-72
2021/04/24 15:37:36;;;;;;;16.70;4.03;;;15.30;55.50;;;;;;10469404;28;20153;-72
2021/04/24 15:42:39;;;;;;;15.65;3.42;;;15.10;56.30;;;;;;10471739;28;20060;-72
2021/04/24 15:47:40;;;;;;;16.38;3.63;;;14.90;55.50;;;;;;10471419;28;20049;-73
2021/04/24 15:52:46;;;;;;;16.23;4.43;;;14.80;56.90;;;;;;10468175;28;20381;-74
2021/04/24 15:57:49;;;;;;;14.80;3.20;;;14.90;57.30;;;;;;10468634;28;20143;-72
2021/04/24 16:02:51;;;;;;;13.50;3.60;;;15.00;56.90;;;;;;10469861;28;20072;-72
2021/04/24 16:07:54;;;;;;;9.88;2.97;;;15.00;57.60;;;;;;10469989;28;20378;-72
2021/04/24 16:12:55;;;;;;;7.10;3.10;;;15.00;57.20;;;;;;10470482;28;20147;-71
2021/04/24 16:17:57;;;;;;;17.40;3.40;;;15.10;55.90;;;;;;10467316;28;20049;-72
2021/04/24 16:23:00;;;;;;;7.32;2.53;;;15.20;53.80;;;;;;10468304;28;20048;-67
2021/04/24 16:28:02;;;;;;;8.85;2.33;;;15.40;41.40;;;;;;10469155;28;20144;-72
2021/04/24 16:33:03;;;;;;;5.50;2.00;;;15.50;38.80;;;;;;10466235;28;20147;-72
2021/04/24 16:38:05;;;;;;;4.60;1.80;;;15.70;37.50;;;;;;10469363;28;20463;-71
2021/04/24 16:43:07;;;;;;;5.45;1.80;;;15.60;36.70;;;;;;10469677;28;20072;-70
2021/04/24 16:48:09;;;;;;;3.33;1.90;;;15.40;37.50;;;;;;10467266;28;20045;-71
2021/04/24 16:53:11;;;;;;;5.63;1.70;;;15.20;37.60;;;;;;10484682;28;20056;-72
2021/04/24 16:58:13;;;;;;;2.67;1.60;;;14.50;43.60;;;;;;10471557;28;20067;-72
2021/04/24 17:03:14;;;;;;;4.35;1.50;;;14.50;39.20;;;;;;10470462;28;20120;-71
2021/04/24 17:08:16;;;;;;;3.13;1.70;;;14.30;37.20;;;;;;10471218;28;21546;-73
2021/04/24 17:13:18;;;;;;;5.80;1.50;;;14.00;37.50;;;;;;10470161;28;20055;-72
2021/04/24 17:18:19;;;;;;;6.13;1.67;;;13.80;37.40;;;;;;10472470;28;20569;-71
2021/04/24 17:23:21;;;;;;;2.35;1.40;;;13.60;37.40;;;;;;10472075;28;20143;-70
2021/04/24 17:28:23;;;;;;;5.30;2.30;;;13.30;38.10;;;;;;10473324;28;20632;-69
2021/04/24 17:33:25;;;;;;;5.97;3.53;;;13.10;38.50;;;;;;10477330;28;20067;-72
2021/04/24 17:38:27;;;;;;;9.95;2.15;;;12.80;39.60;;;;;;10476340;28;20064;-68
2021/04/24 17:43:29;;;;;;;4.10;1.50;;;12.40;40.30;;;;;;10476588;28;20468;-68
2021/04/24 17:48:31;;;;;;;4.60;1.38;;;12.40;40.80;;;;;;10477085;28;20040;-69
2021/04/24 17:53:35;;;;;;;2.70;1.10;;;12.00;41.80;;;;;;10473719;28;20055;-68
2021/04/24 17:58:37;;;;;;;12.05;1.55;;;11.70;46.60;;;;;;10476388;28;20040;-70
2021/04/24 18:03:38;;;;;;;1.65;1.27;;;11.80;41.10;;;;;;10475911;28;20056;-68
2021/04/24 18:08:40;;;;;;;3.22;1.30;;;11.60;41.10;;;;;;10474609;28;20472;-70
2021/04/24 18:13:42;;;;;;;9.00;1.83;;;11.40;41.70;;;;;;10473949;28;20113;-68
2021/04/24 18:18:43;;;;;;;5.65;1.73;;;11.30;42.60;;;;;;10475775;28;20479;-68
2021/04/24 18:23:47;;;;;;;5.88;1.63;;;11.00;53.30;;;;;;10473432;28;20829;-70
2021/04/24 18:28:48;;;;;;;4.70;2.35;;;10.90;46.80;;;;;;10472801;28;21448;-69
2021/04/24 18:33:50;;;;;;;1.95;1.40;;;10.70;49.70;;;;;;10473193;28;20057;-70
2021/04/24 18:38:53;;;;;;;7.32;1.77;;;10.10;58.40;;;;;;10474968;28;20059;-68
2021/04/24 18:43:55;;;;;;;8.45;1.98;;;9.80;60.00;;;;;;10476776;28;20048;-71
2021/04/24 18:48:56;;;;;;;4.67;1.83;;;10.00;54.20;;;;;;10490101;28;20056;-64
2021/04/24 18:53:59;;;;;;;3.38;1.60;;;9.70;63.00;;;;;;10488266;28;20605;-64
2021/04/24 18:59:02;;;;;;;11.98;2.45;;;;;;;;;;10494915;28;20084;-65
2021/04/24 19:04:04;;;;;;;7.70;3.60;;;9.30;57.00;;;;;;10475507;28;20047;-68
2021/04/24 19:14:17;;;;;;;5.47;1.48;;;9.00;58.70;;;;;;11703460;22;20059;-66
2021/04/24 19:19:19;;;;;;;7.30;1.90;;;;;;;;;;10318647;28;20142;-67
2021/04/24 19:24:21;;;;;;;4.00;1.80;;;;;;;;;;10326321;28;20524;-68
2021/04/24 19:29:23;;;;;;;3.65;1.95;;;8.60;60.90;;;;;;10325217;28;20074;-67
2021/04/24 19:34:24;;;;;;;7.53;2.03;;;8.70;69.80;;;;;;10324446;28;20124;-68
2021/04/24 19:39:26;;;;;;;6.68;2.05;;;8.40;70.50;;;;;;10327413;28;20073;-66
2021/04/24 19:44:28;;;;;;;4.72;2.10;;;8.40;63.10;;;;;;10328929;28;20058;-66
2021/04/24 19:49:30;;;;;;;7.78;2.13;;;;;;;;;;10334093;28;20154;-67
2021/04/24 19:54:31;;;;;;;5.40;1.95;;;;;;;;;;10331179;28;20064;-66
2021/04/24 19:59:34;;;;;;;12.10;3.22;;;8.00;65.90;;;;;;10332086;28;20137;-66
2021/04/24 20:04:38;;;;;;;6.07;2.65;;;8.00;74.70;;;;;;10331040;28;20510;-66
2021/04/24 20:09:40;;;;;;;5.28;2.22;;;;;;;;;;10328136;28;20054;-67
2021/04/24 20:14:42;;;;;;;8.57;3.45;;;7.50;75.80;;;;;;10324341;28;20093;-67
2021/04/24 20:19:43;;;;;;;9.00;3.45;;;;;;;;;;10324114;28;20133;-66
2021/04/24 20:24:45;;;;;;;12.52;3.38;;;;;;;;;;10326169;28;20054;-67
2021/04/24 20:29:47;;;;;;;6.70;3.10;;;7.30;79.80;;;;;;10323023;28;20142;-66
2021/04/24 20:34:49;;;;;;;8.10;3.13;;;;;;;;;;10329412;28;20097;-67
2021/04/24 20:39:51;;;;;;;7.53;2.55;;;;;;;;;;10330776;28;20136;-66
2021/04/24 20:44:54;;;;;;;8.57;2.45;;;7.10;76.30;;;;;;10323205;28;20124;-66
2021/04/24 20:49:56;;;;;;;8.82;3.58;;;;;;;;;;10321857;28;20061;-67
2021/04/24 20:54:57;;;;;;;12.60;2.55;;;;;;;;;;10336006;28;20054;-66
2021/04/24 21:00:00;;;;;;;9.00;3.20;;;6.70;80.00;;;;;;10338074;28;20080;-68
2021/04/24 21:05:01;;;;;;;5.67;3.03;;;;;;;;;;10342224;28;20153;-65
2021/04/24 21:10:04;;;;;;;7.53;3.58;;;6.80;83.40;;;;;;10329970;28;20434;-68
2021/04/24 21:15:07;;;;;;;6.30;3.78;;;6.80;91.00;;;;;;10330499;28;20062;-66
2021/04/24 21:20:12;;;;;;;10.20;2.80;;;6.60;84.70;;;;;;10335561;28;20064;-69
2021/04/24 21:25:15;;;;;;;8.52;3.63;;;6.50;85.70;;;;;;10332832;28;20128;-66
2021/04/24 21:30:20;;;;;;;8.75;3.55;;;6.80;92.00;;;;;;10332286;28;20604;-67
2021/04/24 21:35:22;;;;;;;7.90;3.47;;;6.60;92.40;;;;;;10333761;28;20116;-67
2021/04/24 21:40:24;;;;;;;5.60;4.10;;;6.40;87.80;;;;;;10332277;28;20050;-67
2021/04/24 21:45:26;;;;;;;11.50;4.40;;;6.10;92.80;;;;;;10314376;28;20061;-66
2021/04/24 21:50:28;;;;;;;12.95;3.95;;;;;;;;;;10336131;28;20581;-67
2021/04/24 21:55:30;;;;;;;9.68;4.13;;;;;;;;;;10333400;28;20612;-67
2021/04/24 22:00:59;;;;;;;14.20;4.30;;;6.10;93.30;;;;;;10332767;28;20077;-65
2021/04/24 22:06:01;;;;;;;15.15;5.18;;;;;;;;;;10332177;28;20462;-66
2021/04/24 22:11:03;;;;;;;17.38;5.18;;;;;;;;;;10346211;28;20494;-66
2021/04/24 22:16:06;;;;;;;9.45;4.80;;;5.90;90.70;;;;;;10339712;28;20181;-65
2021/04/24 22:21:07;;;;;;;23.60;5.85;;;;;;;;;;10338890;28;20057;-67
2021/04/24 22:26:09;;;;;;;11.95;5.45;;;;;;;;;;10333637;28;20105;-66
2021/04/24 22:31:11;;;;;;;15.98;5.70;;;5.70;91.80;;;;;;10342280;28;20490;-67
2021/04/24 22:36:13;;;;;;;13.43;6.05;;;;;;;;;;10331705;28;20086;-67
2021/04/24 22:41:14;;;;;;;26.15;6.47;;;5.40;95.90;;;;;;10341207;28;20081;-66
2021/04/24 22:46:17;;;;;;;12.18;5.07;;;5.60;92.40;;;;;;10332417;28;20046;-66
2021/04/24 22:51:18;;;;;;;12.20;5.80;;;5.90;96.30;;;;;;10331070;28;20054;-66
2021/04/24 22:56:19;;;;;;;12.10;5.45;;;5.50;96.20;;;;;;10329831;28;20076;-66
2021/04/24 23:01:22;;;;;;;13.77;6.80;;;5.50;92.60;;;;;;10336877;28;20056;-66
2021/04/24 23:06:23;;;;;;;16.17;5.30;;;;;;;;;;10327823;28;20463;-66
2021/04/24 23:11:25;;;;;;;12.80;5.72;;;;;;;;;;10328359;28;20050;-66
2021/04/24 23:16:27;;;;;;;24.63;6.65;;;5.20;92.90;;;;;;10324854;28;20829;-69
2021/04/24 23:21:29;;;;;;;14.48;5.72;;;5.00;96.90;;;;;;10332033;28;20141;-66
2021/04/24 23:26:30;;;;;;;17.40;6.45;;;;;;;;;;10327048;28;20046;-66
2021/04/24 23:31:33;;;;;;;15.68;5.50;;;4.90;93.00;;;;;;10342329;28;20126;-66
2021/04/24 23:36:34;;;;;;;11.35;5.95;;;5.10;97.10;;;;;;10333007;28;20133;-66
2021/04/24 23:41:35;;;;;;;12.73;5.80;;;;;;;;;;10329427;28;20054;-66
2021/04/24 23:46:38;;;;;;;12.75;5.80;;;4.60;97.10;;;;;;10322212;28;20058;-67
2021/04/24 23:51:40;;;;;;;12.52;5.82;;;;;;;;;;10325252;28;20137;-67
2021/04/24 23:56:42;;;;;;;17.23;5.95;;;;;;;;;;10323596;28;20054;-67
